Time;durP1;ratioP1;P1;durP2;ratioP2;P2;SDS_P1;SDS_P2;PMS_P1;PMS_P2;Temp;Humidity;BMP_temperature;BMP_pressure;BME280_temperature;BME280_humidity;BME280_pressure;Samples;Min_cycle;Max_cycle;Signal;HPM_P1;HPM_P2
2023/02/14 00:01:08;;;;;;;35.38;24.52;;;;;;;;;;5053343;28;20293;-67
2023/02/14 00:03:35;;;;;;;35.28;21.95;;;;;;;;;;5053127;28;20193;-66
2023/02/14 00:06:06;;;;;;;36.53;24.10;;;;;;;;;;5053739;28;20658;-66
2023/02/14 00:08:33;;;;;;;32.47;24.23;;;;;;;;;;5054128;28;20216;-66
2023/02/14 00:11:00;;;;;;;35.20;24.30;;;;;;;;;;5053233;28;20193;-66
2023/02/14 00:13:27;;;;;;;35.40;23.70;;;;;;;;;;5053320;28;20197;-66
2023/02/14 00:15:55;;;;;;;33.67;23.02;;;;;;;;;;5052922;28;20203;-66
2023/02/14 00:19:01;;;;;;;31.35;23.38;;;;;;;;;;5056480;28;20209;-66
2023/02/14 00:21:09;;;;;;;31.05;22.52;;;;;;;;;;5057417;28;20530;-67
2023/02/14 00:23:37;;;;;;;37.08;24.27;;;;;;;;;;5057346;28;20195;-67
2023/02/14 00:26:04;;;;;;;34.80;25.02;;;;;;;;;;5057215;28;20203;-67
2023/02/14 00:28:31;;;;;;;36.15;24.67;;;;;;;;;;5056921;28;20684;-67
2023/02/14 00:31:00;;;;;;;37.25;24.85;;;;;;;;;;5056770;28;20638;-67
2023/02/14 00:33:27;;;;;;;34.83;24.00;;;;;;;;;;5057044;28;20193;-67
2023/02/14 00:35:55;;;;;;;31.25;23.30;;;;;;;;;;5056685;28;20289;-67
2023/02/14 00:38:22;;;;;;;35.63;23.92;;;;;;;;;;5057519;28;20595;-67
2023/02/14 00:40:49;;;;;;;35.80;25.90;;;;;;;;;;5056583;28;20203;-67
2023/02/14 00:43:16;;;;;;;35.63;25.83;;;;;;;;;;5056666;28;20636;-67
2023/02/14 00:45:43;;;;;;;34.65;24.05;;;;;;;;;;5056864;28;20203;-66
2023/02/14 00:48:12;;;;;;;34.80;24.27;;;;;;;;;;5056465;28;20208;-66
2023/02/14 00:50:39;;;;;;;34.92;25.65;;;;;;;;;;5056933;28;20546;-67
2023/02/14 00:53:06;;;;;;;33.90;24.85;;;;;;;;;;5056688;28;20551;-67
2023/02/14 00:55:33;;;;;;;35.17;24.73;;;;;;;;;;5057450;28;20519;-67
2023/02/14 00:58:00;;;;;;;38.15;27.25;;;;;;;;;;5056616;28;20192;-67
2023/02/14 01:00:27;;;;;;;39.70;25.50;;;;;;;;;;5056679;28;20201;-66
2023/02/14 01:02:55;;;;;;;35.45;24.98;;;;;;;;;;5056746;28;20193;-67
2023/02/14 01:05:23;;;;;;;36.53;25.10;;;;;;;;;;5056614;28;20219;-67
2023/02/14 01:07:50;;;;;;;34.25;24.13;;;;;;;;;;5056438;28;20535;-67
2023/02/14 01:10:18;;;;;;;38.03;24.95;;;;;;;;;;5056452;28;20529;-66
2023/02/14 01:12:45;;;;;;;38.15;25.33;;;;;;;;;;5056036;28;20232;-66
2023/02/14 01:15:12;;;;;;;42.75;27.08;;;;;;;;;;5056427;28;20546;-67
2023/02/14 01:17:39;;;;;;;41.70;25.95;;;;;;;;;;5056428;28;20193;-67
2023/02/14 01:20:07;;;;;;;38.40;25.65;;;;;;;;;;5056645;28;20193;-67
2023/02/14 01:22:37;;;;;;;39.03;26.63;;;;;;;;;;5055810;28;20209;-67
2023/02/14 01:25:04;;;;;;;37.05;28.30;;;;;;;;;;5055907;28;20201;-66
2023/02/14 01:27:31;;;;;;;36.65;25.65;;;;;;;;;;5055496;28;20520;-67
2023/02/14 01:29:59;;;;;;;35.53;23.95;;;;;;;;;;5055940;28;20220;-67
2023/02/14 01:32:26;;;;;;;38.45;26.63;;;;;;;;;;5055968;28;20209;-67
2023/02/14 01:34:53;;;;;;;33.85;24.13;;;;;;;;;;5056273;28;20191;-67
2023/02/14 01:37:20;;;;;;;36.58;25.52;;;;;;;;;;5055876;28;20200;-66
2023/02/14 01:39:49;;;;;;;35.75;25.30;;;;;;;;;;5055910;28;20206;-67
2023/02/14 01:42:16;;;;;;;35.13;24.50;;;;;;;;;;5055742;28;20200;-66
2023/02/14 01:44:57;;;;;;;35.00;24.60;;;;;;;;;;5055525;28;20196;-66
2023/02/14 01:47:26;;;;;;;33.10;24.50;;;;;;;;;;5055669;28;20605;-67
2023/02/14 01:49:56;;;;;;;36.78;25.25;;;;;;;;;;5055361;28;20217;-66
2023/02/14 01:52:24;;;;;;;32.22;24.80;;;;;;;;;;5055957;28;20550;-66
2023/02/14 01:54:55;;;;;;;32.55;23.77;;;;;;;;;;5055840;28;20193;-66
2023/02/14 01:57:24;;;;;;;33.95;24.85;;;;;;;;;;5055401;28;20200;-67
2023/02/14 01:59:53;;;;;;;32.10;24.02;;;;;;;;;;5055721;28;20221;-67
2023/02/14 02:02:22;;;;;;;31.92;23.88;;;;;;;;;;5055175;28;20191;-67
2023/02/14 02:04:51;;;;;;;32.55;23.42;;;;;;;;;;5055114;28;20227;-67
2023/02/14 02:07:21;;;;;;;32.75;24.10;;;;;;;;;;5055426;28;20199;-67
2023/02/14 02:09:51;;;;;;;35.03;23.48;;;;;;;;;;5054993;28;20671;-67
2023/02/14 02:12:20;;;;;;;30.88;23.80;;;;;;;;;;5055483;28;20525;-67
2023/02/14 02:14:47;;;;;;;31.50;21.23;;;;;;;;;;5054953;28;20192;-67
2023/02/14 02:17:20;;;;;;;27.48;21.27;;;;;;;;;;5055270;28;20192;-68
2023/02/14 02:20:14;;;;;;;28.17;21.23;;;;;;;;;;5055261;28;20195;-67
2023/02/14 02:22:54;;;;;;;27.60;21.33;;;;;;;;;;5055510;28;20192;-67
2023/02/14 02:25:34;;;;;;;26.90;20.60;;;;;;;;;;5055467;28;20196;-67
2023/02/14 02:28:17;;;;;;;29.20;19.13;;;;;;;;;;5054714;28;20179;-67
2023/02/14 02:31:02;;;;;;;28.67;20.52;;;;;;;;;;5054653;28;20213;-67
2023/02/14 02:33:45;;;;;;;28.88;20.40;;;;;;;;;;5039023;28;20197;-68
2023/02/14 02:36:30;;;;;;;27.35;21.30;;;;;;;;;;5055521;28;20518;-67
2023/02/14 02:39:05;;;;;;;25.20;20.00;;;;;;;;;;5053732;28;20662;-67
2023/02/14 02:41:38;;;;;;;29.63;21.80;;;;;;;;;;5054986;28;20187;-67
2023/02/14 02:44:11;;;;;;;25.30;20.17;;;;;;;;;;5054716;28;20192;-67
2023/02/14 02:46:47;;;;;;;28.35;20.83;;;;;;;;;;5054892;28;20185;-67
2023/02/14 02:53:01;;;;;;;26.38;18.95;;;;;;;;;;5054538;28;20207;-67
2023/02/14 02:54:58;;;;;;;29.85;20.90;;;;;;;;;;5054474;28;20177;-67
2023/02/14 02:57:26;;;;;;;25.48;19.33;;;;;;;;;;5054674;28;20207;-67
2023/02/14 02:59:54;;;;;;;28.73;19.80;;;;;;;;;;5054353;28;20234;-67
2023/02/14 03:02:23;;;;;;;29.20;20.80;;;;;;;;;;5054816;28;20194;-68
2023/02/14 03:04:54;;;;;;;24.58;19.20;;;;;;;;;;5054450;28;20229;-68
2023/02/14 03:07:38;;;;;;;22.98;19.15;;;;;;;;;;5054100;28;20187;-68
2023/02/14 03:10:09;;;;;;;25.48;19.20;;;;;;;;;;5054181;28;20297;-67
2023/02/14 03:12:50;;;;;;;32.03;19.83;;;;;;;;;;5054412;28;20177;-67
2023/02/14 03:15:21;;;;;;;32.65;22.15;;;;;;;;;;5054250;28;20594;-67
2023/02/14 03:17:52;;;;;;;27.73;21.33;;;;;;;;;;5053961;28;20186;-68
2023/02/14 03:20:21;;;;;;;29.35;22.48;;;;;;;;;;5054280;28;20533;-67
2023/02/14 03:22:52;;;;;;;22.15;19.60;;;;;;;;;;5054066;28;20303;-67
2023/02/14 03:25:25;;;;;;;29.52;21.73;;;;;;;;;;5053695;28;20644;-67
2023/02/14 03:27:55;;;;;;;23.77;19.90;;;;;;;;;;5054081;28;20185;-67
2023/02/14 03:30:27;;;;;;;29.35;20.25;;;;;;;;;;5054158;28;20215;-67
2023/02/14 03:32:58;;;;;;;28.23;20.55;;;;;;;;;;5054249;28;20202;-67
2023/02/14 03:35:26;;;;;;;37.05;22.08;;;;;;;;;;5053408;28;20276;-67
2023/02/14 03:37:56;;;;;;;28.25;20.50;;;;;;;;;;5054553;28;20193;-67
2023/02/14 03:40:27;;;;;;;30.25;21.00;;;;;;;;;;5053692;28;20203;-67
2023/02/14 03:42:56;;;;;;;27.48;19.33;;;;;;;;;;5053925;28;20192;-67
2023/02/14 03:45:27;;;;;;;30.55;19.10;;;;;;;;;;5053878;28;20200;-67
2023/02/14 03:47:56;;;;;;;29.20;21.50;;;;;;;;;;5053376;28;20189;-67
2023/02/14 03:50:23;;;;;;;27.58;19.63;;;;;;;;;;5053295;28;20217;-67
2023/02/14 03:52:52;;;;;;;29.80;21.20;;;;;;;;;;5063412;28;20188;-67
2023/02/14 03:55:22;;;;;;;27.10;19.50;;;;;;;;;;5073545;28;20640;-67
2023/02/14 03:57:53;;;;;;;28.67;19.92;;;;;;;;;;5073279;28;20196;-67
2023/02/14 04:00:21;;;;;;;29.08;21.10;;;;;;;;;;5073605;28;20195;-67
2023/02/14 04:02:50;;;;;;;26.98;20.48;;;;;;;;;;5074065;28;20299;-67
2023/02/14 04:05:20;;;;;;;26.65;21.10;;;;;;;;;;5073556;28;20302;-67
2023/02/14 04:07:48;;;;;;;31.50;21.60;;;;;;;;;;5073455;28;20220;-67
2023/02/14 04:10:15;;;;;;;31.75;21.58;;;;;;;;;;5072981;28;20234;-67
2023/02/14 04:12:42;;;;;;;33.33;22.25;;;;;;;;;;5073480;28;20192;-67
2023/02/14 04:15:11;;;;;;;31.95;21.33;;;;;;;;;;5073399;28;20269;-67
2023/02/14 04:20:23;;;;;;;33.28;22.48;;;;;;;;;;5073514;28;20177;-67
2023/02/14 04:22:51;;;;;;;33.00;21.92;;;;;;;;;;5073334;28;20194;-67
2023/02/14 04:25:18;;;;;;;32.50;22.17;;;;;;;;;;5073201;28;20246;-67
2023/02/14 04:27:45;;;;;;;30.40;21.35;;;;;;;;;;5073257;28;20210;-67
2023/02/14 04:30:16;;;;;;;25.55;20.73;;;;;;;;;;5073288;28;20216;-67
2023/02/14 04:32:44;;;;;;;34.90;21.45;;;;;;;;;;5073277;28;20269;-65
2023/02/14 04:35:11;;;;;;;30.00;21.08;;;;;;;;;;5073635;28;20633;-65
2023/02/14 04:37:39;;;;;;;33.45;21.15;;;;;;;;;;5073179;28;20194;-65
2023/02/14 04:40:06;;;;;;;30.05;21.55;;;;;;;;;;5072787;28;20262;-67
2023/02/14 04:42:34;;;;;;;32.47;23.23;;;;;;;;;;5073107;28;20193;-63
2023/02/14 04:45:01;;;;;;;34.67;20.60;;;;;;;;;;5072752;28;20200;-64
2023/02/14 04:47:29;;;;;;;32.15;20.75;;;;;;;;;;5072792;28;20200;-64
2023/02/14 04:49:56;;;;;;;29.92;22.10;;;;;;;;;;5072928;28;20242;-64
2023/02/14 04:52:24;;;;;;;33.50;22.45;;;;;;;;;;5073574;28;20549;-65
2023/02/14 04:54:51;;;;;;;29.85;21.20;;;;;;;;;;5073496;28;20196;-64
2023/02/14 04:57:18;;;;;;;33.35;22.25;;;;;;;;;;5072986;28;20197;-64
2023/02/14 04:59:45;;;;;;;32.17;21.45;;;;;;;;;;5072558;28;20281;-64
2023/02/14 05:02:12;;;;;;;29.17;21.45;;;;;;;;;;5070850;28;20198;-65
2023/02/14 05:04:41;;;;;;;30.10;21.50;;;;;;;;;;5054181;28;20711;-64
2023/02/14 05:07:08;;;;;;;29.67;20.65;;;;;;;;;;5055553;28;20289;-64
2023/02/14 05:09:35;;;;;;;31.95;22.58;;;;;;;;;;5055585;28;20208;-64
2023/02/14 05:12:02;;;;;;;31.35;22.13;;;;;;;;;;5055711;28;20658;-64
2023/02/14 05:14:30;;;;;;;31.35;20.30;;;;;;;;;;5055597;28;20200;-69
2023/02/14 05:16:57;;;;;;;38.97;22.52;;;;;;;;;;5055853;28;20195;-65
2023/02/14 05:19:24;;;;;;;30.15;21.60;;;;;;;;;;5054851;28;20201;-64
2023/02/14 05:21:53;;;;;;;30.88;22.00;;;;;;;;;;5055656;28;20197;-64
2023/02/14 05:24:20;;;;;;;30.77;23.00;;;;;;;;;;5055330;28;20191;-65
2023/02/14 05:26:47;;;;;;;28.98;21.63;;;;;;;;;;5055284;28;20197;-64
2023/02/14 05:29:14;;;;;;;38.17;23.65;;;;;;;;;;5055397;28;20195;-64
2023/02/14 05:31:41;;;;;;;34.13;23.13;;;;;;;;;;5055181;28;20687;-64
2023/02/14 05:34:08;;;;;;;33.10;22.35;;;;;;;;;;5055687;28;20528;-64
2023/02/14 05:36:36;;;;;;;36.53;22.85;;;;;;;;;;5055294;28;20520;-64
2023/02/14 05:39:05;;;;;;;39.80;23.45;;;;;;;;;;5055741;28;20548;-65
2023/02/14 05:41:32;;;;;;;33.63;22.60;;;;;;;;;;5055199;28;20610;-64
2023/02/14 05:43:59;;;;;;;34.55;22.77;;;;;;;;;;5055123;28;20672;-64
2023/02/14 05:46:26;;;;;;;30.02;21.42;;;;;;;;;;5055255;28;20278;-64
2023/02/14 05:48:53;;;;;;;32.90;22.70;;;;;;;;;;5055120;28;20192;-64
2023/02/14 05:51:21;;;;;;;36.00;24.08;;;;;;;;;;5055148;28;20302;-64
2023/02/14 05:53:48;;;;;;;36.78;22.83;;;;;;;;;;5055030;28;20641;-64
2023/02/14 05:56:16;;;;;;;32.08;20.55;;;;;;;;;;5054722;28;20264;-64
2023/02/14 05:58:44;;;;;;;32.67;20.52;;;;;;;;;;5055231;28;20205;-64
2023/02/14 06:01:11;;;;;;;31.50;21.40;;;;;;;;;;5055148;28;20233;-64
2023/02/14 06:03:38;;;;;;;32.55;22.17;;;;;;;;;;5055350;28;20189;-64
2023/02/14 06:06:06;;;;;;;29.35;20.30;;;;;;;;;;5055572;28;20228;-63
2023/02/14 06:08:33;;;;;;;29.48;21.85;;;;;;;;;;5055130;28;20541;-64
2023/02/14 06:11:00;;;;;;;24.88;20.20;;;;;;;;;;5055082;28;20767;-64
2023/02/14 06:13:28;;;;;;;30.25;21.40;;;;;;;;;;5054410;28;20644;-64
2023/02/14 06:15:56;;;;;;;31.48;21.70;;;;;;;;;;5054871;28;20195;-65
2023/02/14 06:18:26;;;;;;;32.33;22.85;;;;;;;;;;5054844;28;20190;-64
2023/02/14 06:20:54;;;;;;;36.97;24.63;;;;;;;;;;5055333;28;20219;-64
2023/02/14 06:23:21;;;;;;;35.80;24.95;;;;;;;;;;5055589;28;20192;-64
2023/02/14 06:25:48;;;;;;;34.08;21.65;;;;;;;;;;5055155;28;20193;-64
2023/02/14 06:28:15;;;;;;;27.98;20.42;;;;;;;;;;5055029;28;20204;-64
2023/02/14 06:30:44;;;;;;;32.38;21.95;;;;;;;;;;5054575;28;20221;-64
2023/02/14 06:33:11;;;;;;;31.42;22.55;;;;;;;;;;5053178;28;20201;-65
2023/02/14 06:35:38;;;;;;;34.35;24.27;;;;;;;;;;5053272;28;20192;-65
2023/02/14 06:38:05;;;;;;;31.05;23.42;;;;;;;;;;5053778;28;20202;-65
2023/02/14 06:40:32;;;;;;;34.45;24.10;;;;;;;;;;5054876;28;20200;-65
2023/02/14 06:43:00;;;;;;;37.45;25.02;;;;;;;;;;5054564;28;20200;-65
2023/02/14 06:45:27;;;;;;;32.80;24.30;;;;;;;;;;5054745;28;20206;-65
2023/02/14 06:47:56;;;;;;;37.72;28.10;;;;;;;;;;5054765;28;20187;-64
2023/02/14 06:50:24;;;;;;;37.97;25.33;;;;;;;;;;5054238;28;20215;-64
2023/02/14 06:52:51;;;;;;;35.25;25.10;;;;;;;;;;5054126;28;20195;-64
2023/02/14 06:55:18;;;;;;;35.90;24.77;;;;;;;;;;5054568;28;20250;-64
2023/02/14 06:57:45;;;;;;;28.65;22.95;;;;;;;;;;5054340;28;20208;-64
2023/02/14 07:00:13;;;;;;;31.90;22.27;;;;;;;;;;5054135;28;20194;-64
2023/02/14 07:02:40;;;;;;;37.20;23.85;;;;;;;;;;5053931;28;20194;-64
2023/02/14 07:05:09;;;;;;;32.85;22.65;;;;;;;;;;5054009;28;20231;-64
2023/02/14 07:07:36;;;;;;;37.85;24.33;;;;;;;;;;5053801;28;20230;-64
2023/02/14 07:10:04;;;;;;;32.65;22.48;;;;;;;;;;5054135;28;20189;-64
2023/02/14 07:12:33;;;;;;;37.50;23.05;;;;;;;;;;5054288;28;20217;-65
2023/02/14 07:15:00;;;;;;;36.70;22.48;;;;;;;;;;5054107;28;20232;-66
2023/02/14 07:17:28;;;;;;;31.50;23.75;;;;;;;;;;5053998;28;20195;-64
2023/02/14 07:19:55;;;;;;;33.17;22.95;;;;;;;;;;5054347;28;20526;-64
2023/02/14 07:22:23;;;;;;;35.80;23.08;;;;;;;;;;5054122;28;20538;-64
2023/02/14 07:24:50;;;;;;;32.50;22.52;;;;;;;;;;5053908;28;20193;-64
2023/02/14 07:27:18;;;;;;;34.95;23.95;;;;;;;;;;5053603;28;20202;-64
2023/02/14 07:29:45;;;;;;;37.95;24.00;;;;;;;;;;5054422;28;20191;-65
2023/02/14 07:32:12;;;;;;;31.88;22.33;;;;;;;;;;5053459;28;20559;-64
2023/02/14 07:34:39;;;;;;;41.83;26.92;;;;;;;;;;5053474;28;20193;-65
2023/02/14 07:37:06;;;;;;;37.20;24.05;;;;;;;;;;5054204;28;20188;-65
2023/02/14 07:39:35;;;;;;;32.60;24.33;;;;;;;;;;5053453;28;20733;-65
2023/02/14 07:42:02;;;;;;;36.53;24.40;;;;;;;;;;5053913;28;20195;-64
2023/02/14 07:44:29;;;;;;;37.60;23.10;;;;;;;;;;5053344;28;20219;-64
2023/02/14 07:46:57;;;;;;;51.28;29.10;;;;;;;;;;5053595;28;20288;-64
2023/02/14 07:49:24;;;;;;;71.85;34.35;;;;;;;;;;5053983;28;20219;-64
2023/02/14 07:51:51;;;;;;;58.45;30.70;;;;;;;;;;5053382;28;20212;-64
2023/02/14 07:54:18;;;;;;;51.97;28.92;;;;;;;;;;5053558;28;20219;-64
2023/02/14 07:56:47;;;;;;;53.25;30.83;;;;;;;;;;5053418;28;20208;-64
2023/02/14 07:59:14;;;;;;;58.60;31.50;;;;;;;;;;5053144;28;20202;-64
2023/02/14 08:01:41;;;;;;;47.45;28.25;;;;;;;;;;5053065;28;20645;-65
2023/02/14 08:04:08;;;;;;;39.22;25.48;;;;;;;;;;5053990;28;20227;-64
2023/02/14 08:06:35;;;;;;;35.60;24.05;;;;;;;;;;5053129;28;20185;-65
2023/02/14 08:09:03;;;;;;;34.85;22.95;;;;;;;;;;5053551;28;20193;-64
2023/02/14 08:14:27;;;;;;;30.13;22.10;;;;;;;;;;4972790;28;20198;-64
2023/02/14 08:16:55;;;;;;;29.65;22.80;;;;;;;;;;5033865;28;20192;-64
2023/02/14 08:19:22;;;;;;;28.67;20.70;;;;;;;;;;5053204;28;20611;-64
2023/02/14 08:21:49;;;;;;;31.50;20.00;;;;;;;;;;5053429;28;20219;-64
2023/02/14 08:24:16;;;;;;;26.60;20.63;;;;;;;;;;5053235;28;20212;-64
2023/02/14 08:26:43;;;;;;;31.17;22.23;;;;;;;;;;5053154;28;20204;-64
2023/02/14 08:29:10;;;;;;;39.88;26.35;;;;;;;;;;5053141;28;20230;-64
2023/02/14 08:31:39;;;;;;;39.00;24.60;;;;;;;;;;5053577;28;20219;-64
2023/02/14 08:34:06;;;;;;;30.20;22.48;;;;;;;;;;5053025;28;20196;-64
2023/02/14 08:36:34;;;;;;;33.63;22.70;;;;;;;;;;5053289;28;20542;-64
2023/02/14 08:39:01;;;;;;;38.22;25.13;;;;;;;;;;5055652;28;20650;-64
2023/02/14 08:41:28;;;;;;;28.88;23.05;;;;;;;;;;5057119;28;20613;-64
2023/02/14 08:43:56;;;;;;;31.58;22.73;;;;;;;;;;5057224;28;20219;-64
2023/02/14 08:46:23;;;;;;;28.42;22.80;;;;;;;;;;5056984;28;20193;-64
2023/02/14 08:48:53;;;;;;;31.15;21.52;;;;;;;;;;5057036;28;20188;-64
2023/02/14 08:51:21;;;;;;;29.58;22.88;;;;;;;;;;5057139;28;20215;-64
2023/02/14 08:53:50;;;;;;;28.55;21.52;;;;;;;;;;5056730;28;20283;-64
2023/02/14 08:56:19;;;;;;;29.98;22.70;;;;;;;;;;5056437;28;20229;-65
2023/02/14 08:58:46;;;;;;;28.38;21.70;;;;;;;;;;5056558;28;20192;-64
2023/02/14 09:01:14;;;;;;;35.22;26.30;;;;;;;;;;5056430;28;20199;-64
2023/02/14 09:03:41;;;;;;;34.03;25.45;;;;;;;;;;5056783;28;20283;-64
2023/02/14 09:06:11;;;;;;;30.35;23.80;;;;;;;;;;5056440;28;20594;-64
2023/02/14 09:08:39;;;;;;;27.90;21.55;;;;;;;;;;5056182;28;20197;-64
2023/02/14 09:11:09;;;;;;;29.13;22.30;;;;;;;;;;5056164;28;20214;-64
2023/02/14 09:13:37;;;;;;;25.42;21.65;;;;;;;;;;5056276;28;20687;-64
2023/02/14 09:16:04;;;;;;;24.05;20.55;;;;;;;;;;5056684;28;20289;-64
2023/02/14 09:18:31;;;;;;;25.52;21.30;;;;;;;;;;5056382;28;20274;-64
2023/02/14 09:20:59;;;;;;;27.40;20.67;;;;;;;;;;5056349;28;20190;-64
2023/02/14 09:23:27;;;;;;;25.50;19.05;;;;;;;;;;5056598;28;20220;-66
2023/02/14 09:26:01;;;;;;;29.48;20.65;;;;;;;;;;5056292;28;20517;-64
2023/02/14 09:28:28;;;;;;;26.02;22.00;;;;;;;;;;5055888;28;20184;-64
2023/02/14 09:30:55;;;;;;;28.05;19.95;;;;;;;;;;5056245;28;20634;-64
2023/02/14 09:33:23;;;;;;;26.50;21.23;;;;;;;;;;5055134;28;20190;-64
2023/02/14 09:35:50;;;;;;;23.63;19.30;;;;;;;;;;5055533;28;20194;-65
2023/02/14 09:38:17;;;;;;;23.45;20.52;;;;;;;;;;5055575;28;20206;-64
2023/02/14 09:40:45;;;;;;;22.60;20.20;;;;;;;;;;5056159;28;20221;-64
2023/02/14 09:43:16;;;;;;;32.53;23.50;;;;;;;;;;5055971;28;20196;-64
2023/02/14 09:45:43;;;;;;;28.75;21.42;;;;;;;;;;5056180;28;20191;-64
2023/02/14 09:48:13;;;;;;;23.48;20.48;;;;;;;;;;5055669;28;20201;-65
2023/02/14 09:50:44;;;;;;;23.63;19.27;;;;;;;;;;5056101;28;20200;-64
2023/02/14 09:53:18;;;;;;;22.83;18.10;;;;;;;;;;5055563;28;20327;-64
2023/02/14 09:55:49;;;;;;;21.98;18.90;;;;;;;;;;5055932;28;20190;-64
2023/02/14 09:58:19;;;;;;;28.65;20.23;;;;;;;;;;5055493;28;20189;-65
2023/02/14 10:00:47;;;;;;;19.85;17.77;;;;;;;;;;5055888;28;20296;-64
2023/02/14 10:03:29;;;;;;;26.02;18.50;;;;;;;;;;5055062;28;20202;-64
2023/02/14 10:05:59;;;;;;;21.95;17.98;;;;;;;;;;5034993;28;20221;-64
2023/02/14 10:08:32;;;;;;;18.98;16.85;;;;;;;;;;5055642;28;20179;-65
2023/02/14 10:11:04;;;;;;;22.42;17.08;;;;;;;;;;5055187;28;20218;-64
2023/02/14 10:13:36;;;;;;;22.63;16.75;;;;;;;;;;5054989;28;20182;-66
2023/02/14 10:16:06;;;;;;;24.75;17.63;;;;;;;;;;5054972;28;20188;-64
2023/02/14 10:18:36;;;;;;;23.80;15.77;;;;;;;;;;5055838;28;20183;-64
2023/02/14 10:21:04;;;;;;;19.63;17.17;;;;;;;;;;5055777;28;20190;-64
2023/02/14 10:23:34;;;;;;;19.23;15.45;;;;;;;;;;5054733;28;20200;-64
2023/02/14 10:26:04;;;;;;;26.10;17.48;;;;;;;;;;5055273;28;20179;-65
2023/02/14 10:28:32;;;;;;;26.58;20.60;;;;;;;;;;5055302;28;20536;-65
2023/02/14 10:31:11;;;;;;;20.98;17.92;;;;;;;;;;5055933;28;20285;-65
2023/02/14 10:33:39;;;;;;;18.73;15.52;;;;;;;;;;5055171;28;20198;-64
2023/02/14 10:36:11;;;;;;;17.30;15.13;;;;;;;;;;5055068;28;20196;-64
2023/02/14 10:38:40;;;;;;;16.80;14.10;;;;;;;;;;5054633;28;20191;-65
2023/02/14 10:41:20;;;;;;;17.40;14.02;;;;;;;;;;5054445;28;20194;-64
2023/02/14 10:43:53;;;;;;;18.48;14.68;;;;;;;;;;5054354;28;20182;-65
2023/02/14 10:46:28;;;;;;;15.07;13.40;;;;;;;;;;5054476;28;20639;-64
2023/02/14 10:48:57;;;;;;;14.90;12.85;;;;;;;;;;5054185;28;20186;-64
2023/02/14 10:51:29;;;;;;;18.20;14.23;;;;;;;;;;5054108;28;20202;-64
2023/02/14 10:54:01;;;;;;;18.75;12.60;;;;;;;;;;5054529;28;20282;-64
2023/02/14 10:56:35;;;;;;;19.23;13.93;;;;;;;;;;5054939;28;20183;-64
2023/02/14 10:59:08;;;;;;;13.52;10.77;;;;;;;;;;5054525;28;20193;-64
2023/02/14 11:01:36;;;;;;;16.30;12.27;;;;;;;;;;5054258;28;20189;-64
2023/02/14 11:04:07;;;;;;;15.02;12.23;;;;;;;;;;5054116;28;20187;-65
2023/02/14 11:06:34;;;;;;;16.33;10.32;;;;;;;;;;5055023;28;20280;-64
2023/02/14 11:09:02;;;;;;;11.68;10.10;;;;;;;;;;5054727;28;20190;-68
2023/02/14 11:11:32;;;;;;;11.40;9.95;;;;;;;;;;5054163;28;20205;-64
2023/02/14 11:13:59;;;;;;;14.37;10.40;;;;;;;;;;5053849;28;20197;-64
2023/02/14 11:16:30;;;;;;;11.30;9.53;;;;;;;;;;5053999;28;20775;-64
2023/02/14 11:19:08;;;;;;;16.77;9.70;;;;;;;;;;5053700;28;20446;-64
2023/02/14 11:21:38;;;;;;;14.70;9.50;;;;;;;;;;5054109;28;20187;-64
2023/02/14 11:24:16;;;;;;;13.38;9.07;;;;;;;;;;5053981;28;20187;-65
2023/02/14 11:26:47;;;;;;;10.80;8.63;;;;;;;;;;5053646;28;20183;-64
2023/02/14 11:29:15;;;;;;;12.95;8.82;;;;;;;;;;5054042;28;20182;-65
2023/02/14 11:31:43;;;;;;;11.30;9.45;;;;;;;;;;5053728;28;20283;-64
2023/02/14 11:34:22;;;;;;;12.82;9.27;;;;;;;;;;5054017;28;20199;-64
2023/02/14 11:36:49;;;;;;;10.55;9.45;;;;;;;;;;5054366;28;20631;-64
2023/02/14 11:39:22;;;;;;;12.15;9.98;;;;;;;;;;5053759;28;20277;-64
2023/02/14 11:41:52;;;;;;;10.63;8.80;;;;;;;;;;5053363;28;20183;-65
2023/02/14 11:44:22;;;;;;;11.97;9.23;;;;;;;;;;5053558;28;20437;-64
2023/02/14 11:46:49;;;;;;;13.23;8.98;;;;;;;;;;5053218;28;20532;-64
2023/02/14 11:49:27;;;;;;;14.30;10.20;;;;;;;;;;5053611;28;20217;-64
2023/02/14 11:51:54;;;;;;;14.00;8.97;;;;;;;;;;5053448;28;20461;-64
2023/02/14 11:54:33;;;;;;;11.40;8.90;;;;;;;;;;5053793;28;20445;-64
2023/02/14 11:57:06;;;;;;;14.30;8.90;;;;;;;;;;5053173;28;20505;-64
2023/02/14 11:59:35;;;;;;;10.33;9.10;;;;;;;;;;5053195;28;20461;-64
2023/02/14 12:02:04;;;;;;;10.67;9.17;;;;;;;;;;5053164;28;20441;-64
2023/02/14 12:04:36;;;;;;;9.17;8.03;;;;;;;;;;5053454;28;20491;-64
2023/02/14 12:07:18;;;;;;;9.50;7.77;;;;;;;;;;5053412;28;20459;-64
2023/02/14 12:09:46;;;;;;;12.63;8.47;;;;;;;;;;5054044;28;20524;-65
2023/02/14 12:12:19;;;;;;;10.10;8.27;;;;;;;;;;5056447;28;20480;-65
2023/02/14 12:14:47;;;;;;;9.37;8.43;;;;;;;;;;5060686;28;20436;-64
2023/02/14 12:17:19;;;;;;;9.90;7.97;;;;;;;;;;5059621;28;20476;-64
2023/02/14 12:19:50;;;;;;;8.53;7.60;;;;;;;;;;5060280;28;20422;-64
2023/02/14 12:22:19;;;;;;;10.60;8.50;;;;;;;;;;5059590;28;20436;-64
2023/02/14 12:24:50;;;;;;;14.63;9.73;;;;;;;;;;5060158;28;20444;-64
2023/02/14 12:27:21;;;;;;;10.97;8.80;;;;;;;;;;5059848;28;20421;-64
2023/02/14 12:29:50;;;;;;;11.10;8.93;;;;;;;;;;5060254;28;20432;-64
2023/02/14 12:32:21;;;;;;;19.73;8.98;;;;;;;;;;5059353;28;20958;-64
2023/02/14 12:34:49;;;;;;;10.73;8.50;;;;;;;;;;5060028;28;20198;-65
2023/02/14 12:37:31;;;;;;;13.93;9.43;;;;;;;;;;5059384;28;20194;-64
2023/02/14 12:40:19;;;;;;;14.13;9.20;;;;;;;;;;5059997;28;20459;-64
2023/02/14 12:42:55;;;;;;;10.60;9.10;;;;;;;;;;5059774;28;20891;-64
2023/02/14 12:45:26;;;;;;;12.20;10.40;;;;;;;;;;5059748;28;20421;-65
2023/02/14 12:48:02;;;;;;;9.23;8.23;;;;;;;;;;5059962;28;20423;-64
2023/02/14 12:50:34;;;;;;;11.53;8.80;;;;;;;;;;5060079;28;20416;-65
2023/02/14 12:53:16;;;;;;;13.07;9.20;;;;;;;;;;5059874;28;20460;-64
2023/02/14 12:55:48;;;;;;;13.97;8.60;;;;;;;;;;5005964;28;20446;-65
2023/02/14 12:58:24;;;;;;;9.70;8.70;;;;;;;;;;5059357;28;20909;-64
2023/02/14 13:00:57;;;;;;;11.30;9.87;;;;;;;;;;5059456;28;20421;-64
2023/02/14 13:03:39;;;;;;;10.30;8.40;;;;;;;;;;5060204;28;20771;-64
2023/02/14 13:06:10;;;;;;;14.70;8.93;;;;;;;;;;5059033;28;21011;-64
2023/02/14 13:08:44;;;;;;;9.60;8.43;;;;;;;;;;5059646;28;20742;-64
2023/02/14 13:11:16;;;;;;;12.57;9.27;;;;;;;;;;5059915;28;20448;-64
2023/02/14 13:13:54;;;;;;;9.87;8.20;;;;;;;;;;5059016;28;20448;-64
2023/02/14 13:16:24;;;;;;;11.83;9.07;;;;;;;;;;5059843;28;20781;-64
2023/02/14 13:18:53;;;;;;;9.50;7.53;;;;;;;;;;5059566;28;20468;-65
2023/02/14 13:21:23;;;;;;;9.23;8.33;;;;;;;;;;5059566;28;20784;-64
2023/02/14 13:23:53;;;;;;;13.10;9.83;;;;;;;;;;5057059;28;20798;-64
2023/02/14 13:26:22;;;;;;;11.33;8.83;;;;;;;;;;5056457;28;20420;-64
2023/02/14 13:28:52;;;;;;;14.80;8.57;;;;;;;;;;5055836;28;20446;-65
2023/02/14 13:31:20;;;;;;;8.80;7.90;;;;;;;;;;5056011;28;20438;-65
2023/02/14 13:33:51;;;;;;;8.77;7.87;;;;;;;;;;5055828;28;20638;-64
2023/02/14 13:36:19;;;;;;;11.40;9.73;;;;;;;;;;5056163;28;20465;-65
2023/02/14 13:38:48;;;;;;;9.60;8.70;;;;;;;;;;5056335;28;20436;-65
2023/02/14 13:41:16;;;;;;;13.20;9.13;;;;;;;;;;5055838;28;20859;-65
2023/02/14 13:43:47;;;;;;;11.70;9.37;;;;;;;;;;5056050;28;20438;-64
2023/02/14 13:46:16;;;;;;;13.67;9.50;;;;;;;;;;5055392;28;20440;-65
2023/02/14 13:48:46;;;;;;;11.27;9.07;;;;;;;;;;5055408;28;20946;-64
2023/02/14 13:51:14;;;;;;;17.93;10.77;;;;;;;;;;5055700;28;20419;-66
2023/02/14 13:53:42;;;;;;;10.67;9.20;;;;;;;;;;5055118;28;20488;-63
2023/02/14 13:56:28;;;;;;;12.00;8.87;;;;;;;;;;5055333;28;20930;-65
2023/02/14 13:58:58;;;;;;;13.30;9.50;;;;;;;;;;5055587;28;20430;-66
2023/02/14 14:01:31;;;;;;;11.17;9.13;;;;;;;;;;5055267;28;20429;-66
2023/02/14 14:03:59;;;;;;;13.30;8.90;;;;;;;;;;5055512;28;20446;-65
2023/02/14 14:06:27;;;;;;;10.40;9.03;;;;;;;;;;5056364;28;20428;-68
2023/02/14 14:08:55;;;;;;;11.03;8.70;;;;;;;;;;5055343;28;20461;-65
2023/02/14 14:11:56;;;;;;;13.20;9.93;;;;;;;;;;5063762;28;20427;-65
2023/02/14 14:14:29;;;;;;;9.80;8.50;;;;;;;;;;5053562;28;20557;-65
2023/02/14 14:17:01;;;;;;;10.30;8.40;;;;;;;;;;5053974;28;20435;-65
2023/02/14 14:19:38;;;;;;;15.70;9.70;;;;;;;;;;5054645;28;20470;-68
2023/02/14 14:22:06;;;;;;;10.53;8.80;;;;;;;;;;5054673;28;20435;-66
2023/02/14 14:24:34;;;;;;;9.37;8.03;;;;;;;;;;5054456;28;20503;-67
2023/02/14 14:27:02;;;;;;;12.17;8.87;;;;;;;;;;5054464;28;20457;-65
2023/02/14 14:29:32;;;;;;;13.60;9.20;;;;;;;;;;5054626;28;20439;-66
2023/02/14 14:32:08;;;;;;;10.70;9.60;;;;;;;;;;5054583;28;20450;-65
2023/02/14 14:34:35;;;;;;;10.37;8.90;;;;;;;;;;5054053;28;20499;-65
2023/02/14 14:37:03;;;;;;;9.20;8.30;;;;;;;;;;5053525;28;20448;-65
2023/02/14 14:39:32;;;;;;;11.00;8.53;;;;;;;;;;5054023;28;20945;-65
2023/02/14 14:42:05;;;;;;;16.03;9.30;;;;;;;;;;5054112;28;20474;-67
2023/02/14 14:44:33;;;;;;;16.20;8.50;;;;;;;;;;5034210;28;20505;-65